sensor_id;sensor_type;location;lat;lon;timestamp;P1;durP1;ratioP1;P2;durP2;ratioP2
67715;SDS011;54508;43.238;25.306;2024-02-23T00:02:24;3.45;;;2.30;;
67715;SDS011;54508;43.238;25.306;2024-02-23T00:04:49;3.23;;;2.10;;
67715;SDS011;54508;43.238;25.306;2024-02-23T00:07:15;1.95;;;1.75;;
67715;SDS011;54508;43.238;25.306;2024-02-23T00:09:40;3.43;;;1.90;;
67715;SDS011;54508;43.238;25.306;2024-02-23T00:12:06;2.50;;;2.00;;
67715;SDS011;54508;43.238;25.306;2024-02-23T00:14:33;2.63;;;2.00;;
67715;SDS011;54508;43.238;25.306;2024-02-23T00:17:01;2.33;;;1.90;;
67715;SDS011;54508;43.238;25.306;2024-02-23T00:19:27;2.33;;;2.03;;
67715;SDS011;54508;43.238;25.306;2024-02-23T00:21:54;2.10;;;1.90;;
67715;SDS011;54508;43.238;25.306;2024-02-23T00:24:20;2.33;;;2.10;;
67715;SDS011;54508;43.238;25.306;2024-02-23T00:26:46;2.58;;;1.98;;
67715;SDS011;54508;43.238;25.306;2024-02-23T00:29:11;2.22;;;2.03;;
67715;SDS011;54508;43.238;25.306;2024-02-23T00:31:40;2.65;;;2.10;;
67715;SDS011;54508;43.238;25.306;2024-02-23T00:34:10;3.08;;;2.17;;
67715;SDS011;54508;43.238;25.306;2024-02-23T00:36:38;2.33;;;2.07;;
67715;SDS011;54508;43.238;25.306;2024-02-23T00:39:04;3.38;;;2.20;;
67715;SDS011;54508;43.238;25.306;2024-02-23T00:41:29;2.73;;;2.30;;
67715;SDS011;54508;43.238;25.306;2024-02-23T00:43:55;3.17;;;2.38;;
67715;SDS011;54508;43.238;25.306;2024-02-23T00:46:20;3.10;;;2.30;;
67715;SDS011;54508;43.238;25.306;2024-02-23T00:48:45;2.57;;;1.90;;
67715;SDS011;54508;43.238;25.306;2024-02-23T00:51:11;2.43;;;1.83;;
67715;SDS011;54508;43.238;25.306;2024-02-23T00:53:36;2.70;;;1.80;;
67715;SDS011;54508;43.238;25.306;2024-02-23T00:56:02;2.45;;;2.05;;
67715;SDS011;54508;43.238;25.306;2024-02-23T00:58:27;2.90;;;2.17;;
67715;SDS011;54508;43.238;25.306;2024-02-23T01:00:53;2.83;;;2.10;;
67715;SDS011;54508;43.238;25.306;2024-02-23T01:03:18;3.17;;;2.10;;
67715;SDS011;54508;43.238;25.306;2024-02-23T01:05:43;2.63;;;2.30;;
67715;SDS011;54508;43.238;25.306;2024-02-23T01:08:09;2.30;;;1.97;;
67715;SDS011;54508;43.238;25.306;2024-02-23T01:10:34;2.60;;;2.00;;
67715;SDS011;54508;43.238;25.306;2024-02-23T01:13:00;2.63;;;2.20;;
67715;SDS011;54508;43.238;25.306;2024-02-23T01:15:25;2.25;;;1.88;;
67715;SDS011;54508;43.238;25.306;2024-02-23T01:17:51;5.00;;;2.13;;
67715;SDS011;54508;43.238;25.306;2024-02-23T01:20:16;2.73;;;2.03;;
67715;SDS011;54508;43.238;25.306;2024-02-23T01:22:42;4.20;;;1.83;;
67715;SDS011;54508;43.238;25.306;2024-02-23T01:25:07;1.93;;;1.53;;
67715;SDS011;54508;43.238;25.306;2024-02-23T01:27:33;2.93;;;1.60;;
67715;SDS011;54508;43.238;25.306;2024-02-23T01:29:58;2.57;;;1.60;;
67715;SDS011;54508;43.238;25.306;2024-02-23T01:32:24;1.90;;;1.70;;
67715;SDS011;54508;43.238;25.306;2024-02-23T01:34:49;2.20;;;1.90;;
67715;SDS011;54508;43.238;25.306;2024-02-23T01:37:15;2.10;;;1.70;;
67715;SDS011;54508;43.238;25.306;2024-02-23T01:39:40;2.20;;;1.73;;
67715;SDS011;54508;43.238;25.306;2024-02-23T01:42:05;2.40;;;1.90;;
67715;SDS011;54508;43.238;25.306;2024-02-23T01:44:31;2.50;;;1.80;;
67715;SDS011;54508;43.238;25.306;2024-02-23T01:46:56;2.40;;;1.70;;
67715;SDS011;54508;43.238;25.306;2024-02-23T01:49:22;2.60;;;1.70;;
67715;SDS011;54508;43.238;25.306;2024-02-23T01:51:54;2.00;;;1.77;;
67715;SDS011;54508;43.238;25.306;2024-02-23T01:54:23;2.35;;;1.85;;
67715;SDS011;54508;43.238;25.306;2024-02-23T01:56:49;2.42;;;1.77;;
67715;SDS011;54508;43.238;25.306;2024-02-23T01:59:15;2.38;;;1.90;;
67715;SDS011;54508;43.238;25.306;2024-02-23T02:01:42;2.50;;;1.57;;
67715;SDS011;54508;43.238;25.306;2024-02-23T02:04:08;2.15;;;1.85;;
67715;SDS011;54508;43.238;25.306;2024-02-23T02:06:33;2.53;;;2.00;;
67715;SDS011;54508;43.238;25.306;2024-02-23T02:08:59;2.63;;;1.83;;
67715;SDS011;54508;43.238;25.306;2024-02-23T02:11:24;2.20;;;1.97;;
67715;SDS011;54508;43.238;25.306;2024-02-23T02:13:50;2.03;;;1.83;;
67715;SDS011;54508;43.238;25.306;2024-02-23T02:16:15;2.30;;;2.10;;
67715;SDS011;54508;43.238;25.306;2024-02-23T02:18:41;2.50;;;1.88;;
67715;SDS011;54508;43.238;25.306;2024-02-23T02:21:06;2.30;;;1.90;;
67715;SDS011;54508;43.238;25.306;2024-02-23T02:23:32;2.20;;;2.00;;
67715;SDS011;54508;43.238;25.306;2024-02-23T02:25:58;2.27;;;1.93;;
67715;SDS011;54508;43.238;25.306;2024-02-23T02:28:24;1.95;;;1.70;;
67715;SDS011;54508;43.238;25.306;2024-02-23T02:30:50;2.20;;;1.80;;
67715;SDS011;54508;43.238;25.306;2024-02-23T02:33:17;2.55;;;2.35;;
67715;SDS011;54508;43.238;25.306;2024-02-23T02:35:43;3.17;;;2.10;;
67715;SDS011;54508;43.238;25.306;2024-02-23T02:38:10;2.13;;;1.77;;
67715;SDS011;54508;43.238;25.306;2024-02-23T02:40:35;3.23;;;2.40;;
67715;SDS011;54508;43.238;25.306;2024-02-23T02:43:01;2.20;;;1.63;;
67715;SDS011;54508;43.238;25.306;2024-02-23T02:45:26;2.80;;;2.03;;
67715;SDS011;54508;43.238;25.306;2024-02-23T02:47:51;3.43;;;2.30;;
67715;SDS011;54508;43.238;25.306;2024-02-23T02:50:17;2.03;;;1.73;;
67715;SDS011;54508;43.238;25.306;2024-02-23T02:52:42;2.83;;;2.00;;
67715;SDS011;54508;43.238;25.306;2024-02-23T02:55:08;2.27;;;2.00;;
67715;SDS011;54508;43.238;25.306;2024-02-23T02:57:33;2.65;;;2.00;;
67715;SDS011;54508;43.238;25.306;2024-02-23T03:00:01;3.30;;;1.77;;
67715;SDS011;54508;43.238;25.306;2024-02-23T03:02:30;3.00;;;2.03;;
67715;SDS011;54508;43.238;25.306;2024-02-23T03:04:55;2.65;;;2.08;;
67715;SDS011;54508;43.238;25.306;2024-02-23T03:07:21;3.47;;;1.90;;
67715;SDS011;54508;43.238;25.306;2024-02-23T03:09:46;2.17;;;1.97;;
67715;SDS011;54508;43.238;25.306;2024-02-23T03:12:11;2.58;;;2.20;;
67715;SDS011;54508;43.238;25.306;2024-02-23T03:14:37;2.30;;;1.90;;
67715;SDS011;54508;43.238;25.306;2024-02-23T03:17:05;2.65;;;2.05;;
67715;SDS011;54508;43.238;25.306;2024-02-23T03:19:31;2.63;;;1.80;;
67715;SDS011;54508;43.238;25.306;2024-02-23T03:21:57;4.40;;;2.13;;
67715;SDS011;54508;43.238;25.306;2024-02-23T03:24:23;3.30;;;2.47;;
67715;SDS011;54508;43.238;25.306;2024-02-23T03:26:48;2.53;;;1.95;;
67715;SDS011;54508;43.238;25.306;2024-02-23T03:29:14;2.47;;;1.97;;
67715;SDS011;54508;43.238;25.306;2024-02-23T03:31:39;2.07;;;1.87;;
67715;SDS011;54508;43.238;25.306;2024-02-23T03:34:05;2.47;;;2.07;;
67715;SDS011;54508;43.238;25.306;2024-02-23T03:36:30;3.08;;;2.17;;
67715;SDS011;54508;43.238;25.306;2024-02-23T03:38:55;2.43;;;2.17;;
67715;SDS011;54508;43.238;25.306;2024-02-23T03:41:21;2.40;;;2.00;;
67715;SDS011;54508;43.238;25.306;2024-02-23T03:43:47;2.78;;;2.13;;
67715;SDS011;54508;43.238;25.306;2024-02-23T03:46:12;3.17;;;2.30;;
67715;SDS011;54508;43.238;25.306;2024-02-23T03:48:39;2.63;;;2.20;;
67715;SDS011;54508;43.238;25.306;2024-02-23T03:51:05;2.70;;;2.07;;
67715;SDS011;54508;43.238;25.306;2024-02-23T03:53:31;2.60;;;2.10;;
67715;SDS011;54508;43.238;25.306;2024-02-23T03:55:56;2.95;;;2.30;;
67715;SDS011;54508;43.238;25.306;2024-02-23T03:58:22;3.13;;;2.10;;
67715;SDS011;54508;43.238;25.306;2024-02-23T04:00:47;2.45;;;2.10;;
67715;SDS011;54508;43.238;25.306;2024-02-23T04:03:13;2.73;;;2.33;;
67715;SDS011;54508;43.238;25.306;2024-02-23T04:05:38;2.87;;;2.10;;
67715;SDS011;54508;43.238;25.306;2024-02-23T04:08:04;4.57;;;2.30;;
67715;SDS011;54508;43.238;25.306;2024-02-23T04:10:29;2.08;;;1.88;;
67715;SDS011;54508;43.238;25.306;2024-02-23T04:12:55;2.83;;;2.50;;
67715;SDS011;54508;43.238;25.306;2024-02-23T04:15:20;2.60;;;2.13;;
67715;SDS011;54508;43.238;25.306;2024-02-23T04:17:46;2.53;;;2.30;;
67715;SDS011;54508;43.238;25.306;2024-02-23T04:20:11;2.88;;;2.53;;
67715;SDS011;54508;43.238;25.306;2024-02-23T04:22:37;4.63;;;2.80;;
67715;SDS011;54508;43.238;25.306;2024-02-23T04:25:02;4.57;;;2.95;;
67715;SDS011;54508;43.238;25.306;2024-02-23T04:27:28;4.80;;;3.00;;
67715;SDS011;54508;43.238;25.306;2024-02-23T04:29:54;5.07;;;3.17;;
67715;SDS011;54508;43.238;25.306;2024-02-23T04:32:19;4.03;;;3.00;;
67715;SDS011;54508;43.238;25.306;2024-02-23T04:34:45;4.37;;;3.37;;
67715;SDS011;54508;43.238;25.306;2024-02-23T04:37:10;3.60;;;2.90;;
67715;SDS011;54508;43.238;25.306;2024-02-23T04:39:35;3.73;;;2.93;;
67715;SDS011;54508;43.238;25.306;2024-02-23T04:42:02;4.43;;;3.10;;
67715;SDS011;54508;43.238;25.306;2024-02-23T04:44:28;4.07;;;3.45;;
67715;SDS011;54508;43.238;25.306;2024-02-23T04:46:53;3.85;;;3.03;;
67715;SDS011;54508;43.238;25.306;2024-02-23T04:49:19;3.83;;;3.10;;
67715;SDS011;54508;43.238;25.306;2024-02-23T04:51:44;5.40;;;3.07;;
67715;SDS011;54508;43.238;25.306;2024-02-23T04:54:10;4.13;;;3.30;;
67715;SDS011;54508;43.238;25.306;2024-02-23T04:56:35;3.80;;;3.27;;
67715;SDS011;54508;43.238;25.306;2024-02-23T04:59:00;5.07;;;2.90;;
67715;SDS011;54508;43.238;25.306;2024-02-23T05:01:26;3.90;;;3.03;;
67715;SDS011;54508;43.238;25.306;2024-02-23T05:03:51;4.50;;;3.53;;
67715;SDS011;54508;43.238;25.306;2024-02-23T05:06:17;6.10;;;3.20;;
67715;SDS011;54508;43.238;25.306;2024-02-23T05:08:42;3.95;;;3.10;;
67715;SDS011;54508;43.238;25.306;2024-02-23T05:11:08;3.40;;;3.07;;
67715;SDS011;54508;43.238;25.306;2024-02-23T05:13:33;5.37;;;3.17;;
67715;SDS011;54508;43.238;25.306;2024-02-23T05:15:58;4.73;;;3.23;;
67715;SDS011;54508;43.238;25.306;2024-02-23T05:18:24;3.97;;;3.27;;
67715;SDS011;54508;43.238;25.306;2024-02-23T05:20:49;4.55;;;3.33;;
67715;SDS011;54508;43.238;25.306;2024-02-23T05:23:15;4.30;;;3.33;;
67715;SDS011;54508;43.238;25.306;2024-02-23T05:25:43;4.90;;;3.63;;
67715;SDS011;54508;43.238;25.306;2024-02-23T05:28:08;5.20;;;4.03;;
67715;SDS011;54508;43.238;25.306;2024-02-23T05:30:34;6.57;;;3.73;;
67715;SDS011;54508;43.238;25.306;2024-02-23T05:32:59;6.47;;;3.92;;
67715;SDS011;54508;43.238;25.306;2024-02-23T05:35:28;6.50;;;4.07;;
67715;SDS011;54508;43.238;25.306;2024-02-23T05:37:54;6.88;;;4.00;;
67715;SDS011;54508;43.238;25.306;2024-02-23T05:40:20;6.07;;;4.03;;
67715;SDS011;54508;43.238;25.306;2024-02-23T05:42:45;5.10;;;4.17;;
67715;SDS011;54508;43.238;25.306;2024-02-23T05:45:11;6.88;;;4.65;;
67715;SDS011;54508;43.238;25.306;2024-02-23T05:47:37;5.57;;;4.60;;
67715;SDS011;54508;43.238;25.306;2024-02-23T05:50:03;6.03;;;4.45;;
67715;SDS011;54508;43.238;25.306;2024-02-23T05:52:32;6.60;;;5.00;;
67715;SDS011;54508;43.238;25.306;2024-02-23T05:54:58;5.93;;;4.50;;
67715;SDS011;54508;43.238;25.306;2024-02-23T05:57:25;7.43;;;5.10;;
67715;SDS011;54508;43.238;25.306;2024-02-23T05:59:51;5.97;;;5.03;;
67715;SDS011;54508;43.238;25.306;2024-02-23T06:02:17;8.33;;;4.57;;
67715;SDS011;54508;43.238;25.306;2024-02-23T06:04:42;7.90;;;5.37;;
67715;SDS011;54508;43.238;25.306;2024-02-23T06:07:08;8.05;;;5.20;;
67715;SDS011;54508;43.238;25.306;2024-02-23T06:09:33;8.50;;;5.73;;
67715;SDS011;54508;43.238;25.306;2024-02-23T06:11:59;6.80;;;5.03;;
67715;SDS011;54508;43.238;25.306;2024-02-23T06:14:25;6.85;;;4.90;;
67715;SDS011;54508;43.238;25.306;2024-02-23T06:16:50;10.57;;;7.13;;
67715;SDS011;54508;43.238;25.306;2024-02-23T06:19:15;8.73;;;6.70;;
67715;SDS011;54508;43.238;25.306;2024-02-23T06:21:41;11.17;;;7.13;;
67715;SDS011;54508;43.238;25.306;2024-02-23T06:24:06;10.90;;;7.63;;
67715;SDS011;54508;43.238;25.306;2024-02-23T06:26:33;11.40;;;7.40;;
67715;SDS011;54508;43.238;25.306;2024-02-23T06:28:59;9.80;;;7.00;;
67715;SDS011;54508;43.238;25.306;2024-02-23T06:31:24;14.73;;;7.73;;
67715;SDS011;54508;43.238;25.306;2024-02-23T06:33:50;11.13;;;6.97;;
67715;SDS011;54508;43.238;25.306;2024-02-23T06:36:16;8.00;;;6.68;;
67715;SDS011;54508;43.238;25.306;2024-02-23T06:38:43;9.35;;;6.35;;
67715;SDS011;54508;43.238;25.306;2024-02-23T06:41:09;10.27;;;7.72;;
67715;SDS011;54508;43.238;25.306;2024-02-23T06:43:36;8.07;;;5.10;;
67715;SDS011;54508;43.238;25.306;2024-02-23T06:46:07;7.13;;;6.10;;
67715;SDS011;54508;43.238;25.306;2024-02-23T06:48:34;8.77;;;5.68;;
67715;SDS011;54508;43.238;25.306;2024-02-23T06:51:00;7.15;;;4.30;;
67715;SDS011;54508;43.238;25.306;2024-02-23T06:53:25;17.27;;;8.77;;
67715;SDS011;54508;43.238;25.306;2024-02-23T06:55:50;12.07;;;9.13;;
67715;SDS011;54508;43.238;25.306;2024-02-23T06:58:16;14.63;;;7.23;;
67715;SDS011;54508;43.238;25.306;2024-02-23T07:00:43;13.27;;;6.80;;
67715;SDS011;54508;43.238;25.306;2024-02-23T07:03:09;187.35;;;17.10;;
67715;SDS011;54508;43.238;25.306;2024-02-23T07:05:34;22.70;;;7.30;;
67715;SDS011;54508;43.238;25.306;2024-02-23T07:08:00;16.77;;;7.25;;
67715;SDS011;54508;43.238;25.306;2024-02-23T07:10:26;13.75;;;8.27;;
67715;SDS011;54508;43.238;25.306;2024-02-23T07:12:52;14.23;;;9.33;;
67715;SDS011;54508;43.238;25.306;2024-02-23T07:15:19;8.73;;;6.40;;
67715;SDS011;54508;43.238;25.306;2024-02-23T07:17:45;10.40;;;5.05;;
67715;SDS011;54508;43.238;25.306;2024-02-23T07:20:11;18.27;;;7.00;;
67715;SDS011;54508;43.238;25.306;2024-02-23T07:22:36;8.60;;;4.38;;
67715;SDS011;54508;43.238;25.306;2024-02-23T07:25:02;14.13;;;6.67;;
67715;SDS011;54508;43.238;25.306;2024-02-23T07:27:29;16.33;;;6.60;;
67715;SDS011;54508;43.238;25.306;2024-02-23T07:29:55;12.52;;;5.90;;
67715;SDS011;54508;43.238;25.306;2024-02-23T07:32:21;9.37;;;5.30;;
67715;SDS011;54508;43.238;25.306;2024-02-23T07:34:46;11.43;;;5.80;;
67715;SDS011;54508;43.238;25.306;2024-02-23T07:37:11;11.13;;;5.87;;
67715;SDS011;54508;43.238;25.306;2024-02-23T07:39:37;16.13;;;5.60;;
67715;SDS011;54508;43.238;25.306;2024-02-23T07:42:03;10.80;;;5.05;;
67715;SDS011;54508;43.238;25.306;2024-02-23T07:44:28;8.55;;;4.63;;
67715;SDS011;54508;43.238;25.306;2024-02-23T07:46:54;6.57;;;4.78;;
67715;SDS011;54508;43.238;25.306;2024-02-23T07:49:20;5.97;;;4.30;;
67715;SDS011;54508;43.238;25.306;2024-02-23T07:51:47;12.55;;;5.18;;
67715;SDS011;54508;43.238;25.306;2024-02-23T07:54:13;8.45;;;5.00;;
67715;SDS011;54508;43.238;25.306;2024-02-23T07:56:38;11.13;;;4.80;;
67715;SDS011;54508;43.238;25.306;2024-02-23T07:59:03;11.07;;;4.80;;
67715;SDS011;54508;43.238;25.306;2024-02-23T08:01:29;9.13;;;4.53;;
67715;SDS011;54508;43.238;25.306;2024-02-23T08:03:55;8.33;;;4.70;;
67715;SDS011;54508;43.238;25.306;2024-02-23T08:06:20;9.85;;;4.85;;
67715;SDS011;54508;43.238;25.306;2024-02-23T08:08:46;10.67;;;4.40;;
67715;SDS011;54508;43.238;25.306;2024-02-23T08:11:12;15.37;;;5.03;;
67715;SDS011;54508;43.238;25.306;2024-02-23T08:13:38;15.68;;;4.38;;
67715;SDS011;54508;43.238;25.306;2024-02-23T08:16:04;5.87;;;4.07;;
67715;SDS011;54508;43.238;25.306;2024-02-23T08:18:31;8.23;;;3.65;;
67715;SDS011;54508;43.238;25.306;2024-02-23T08:20:56;10.40;;;3.70;;
67715;SDS011;54508;43.238;25.306;2024-02-23T08:23:23;10.27;;;3.60;;
67715;SDS011;54508;43.238;25.306;2024-02-23T08:25:49;10.00;;;3.95;;
67715;SDS011;54508;43.238;25.306;2024-02-23T08:28:15;9.50;;;3.55;;
67715;SDS011;54508;43.238;25.306;2024-02-23T08:30:41;6.87;;;3.33;;
67715;SDS011;54508;43.238;25.306;2024-02-23T08:33:06;5.53;;;3.33;;
67715;SDS011;54508;43.238;25.306;2024-02-23T08:35:34;8.77;;;4.13;;
67715;SDS011;54508;43.238;25.306;2024-02-23T08:37:59;11.23;;;3.60;;
67715;SDS011;54508;43.238;25.306;2024-02-23T08:40:25;9.55;;;3.97;;
67715;SDS011;54508;43.238;25.306;2024-02-23T08:42:50;9.80;;;4.40;;
67715;SDS011;54508;43.238;25.306;2024-02-23T08:45:17;13.02;;;4.60;;
67715;SDS011;54508;43.238;25.306;2024-02-23T08:47:42;10.83;;;3.73;;
67715;SDS011;54508;43.238;25.306;2024-02-23T08:50:08;14.25;;;4.20;;
67715;SDS011;54508;43.238;25.306;2024-02-23T08:52:34;11.00;;;3.80;;
67715;SDS011;54508;43.238;25.306;2024-02-23T08:54:59;10.05;;;4.00;;
67715;SDS011;54508;43.238;25.306;2024-02-23T08:57:28;12.38;;;4.20;;
67715;SDS011;54508;43.238;25.306;2024-02-23T08:59:53;10.00;;;4.05;;
67715;SDS011;54508;43.238;25.306;2024-02-23T09:02:21;14.75;;;4.30;;
67715;SDS011;54508;43.238;25.306;2024-02-23T09:04:47;21.30;;;3.80;;
67715;SDS011;54508;43.238;25.306;2024-02-23T09:07:12;10.15;;;3.78;;
67715;SDS011;54508;43.238;25.306;2024-02-23T09:09:38;9.93;;;3.60;;
67715;SDS011;54508;43.238;25.306;2024-02-23T09:12:03;9.77;;;3.60;;
67715;SDS011;54508;43.238;25.306;2024-02-23T09:14:31;15.23;;;3.72;;
67715;SDS011;54508;43.238;25.306;2024-02-23T09:16:58;9.43;;;3.58;;
67715;SDS011;54508;43.238;25.306;2024-02-23T09:19:23;5.47;;;3.10;;
67715;SDS011;54508;43.238;25.306;2024-02-23T09:21:48;13.67;;;4.57;;
67715;SDS011;54508;43.238;25.306;2024-02-23T09:24:14;13.23;;;4.30;;
67715;SDS011;54508;43.238;25.306;2024-02-23T09:26:39;10.47;;;4.50;;
67715;SDS011;54508;43.238;25.306;2024-02-23T09:29:05;13.97;;;4.97;;
67715;SDS011;54508;43.238;25.306;2024-02-23T09:31:30;11.15;;;4.40;;
67715;SDS011;54508;43.238;25.306;2024-02-23T09:33:57;10.93;;;4.70;;
67715;SDS011;54508;43.238;25.306;2024-02-23T09:36:23;10.32;;;4.13;;
67715;SDS011;54508;43.238;25.306;2024-02-23T09:38:49;10.75;;;4.60;;
67715;SDS011;54508;43.238;25.306;2024-02-23T09:41:19;15.77;;;4.57;;
67715;SDS011;54508;43.238;25.306;2024-02-23T09:43:46;8.15;;;4.32;;
67715;SDS011;54508;43.238;25.306;2024-02-23T09:46:14;8.65;;;4.07;;
67715;SDS011;54508;43.238;25.306;2024-02-23T09:48:43;6.43;;;4.10;;
67715;SDS011;54508;43.238;25.306;2024-02-23T09:51:10;5.72;;;3.53;;
67715;SDS011;54508;43.238;25.306;2024-02-23T09:53:38;5.45;;;4.03;;
67715;SDS011;54508;43.238;25.306;2024-02-23T09:56:04;9.67;;;4.70;;
67715;SDS011;54508;43.238;25.306;2024-02-23T09:58:34;9.82;;;4.20;;
67715;SDS011;54508;43.238;25.306;2024-02-23T10:01:00;4.88;;;4.35;;
67715;SDS011;54508;43.238;25.306;2024-02-23T10:03:27;6.75;;;3.85;;
67715;SDS011;54508;43.238;25.306;2024-02-23T10:05:56;7.05;;;3.70;;
67715;SDS011;54508;43.238;25.306;2024-02-23T10:08:22;5.72;;;3.15;;
67715;SDS011;54508;43.238;25.306;2024-02-23T10:10:48;5.33;;;3.93;;
67715;SDS011;54508;43.238;25.306;2024-02-23T10:13:19;4.50;;;3.00;;
67715;SDS011;54508;43.238;25.306;2024-02-23T10:15:46;7.95;;;3.10;;
67715;SDS011;54508;43.238;25.306;2024-02-23T10:18:12;5.47;;;3.03;;
67715;SDS011;54508;43.238;25.306;2024-02-23T10:20:37;4.27;;;2.97;;
67715;SDS011;54508;43.238;25.306;2024-02-23T10:23:15;5.10;;;2.90;;
67715;SDS011;54508;43.238;25.306;2024-02-23T10:25:53;6.07;;;3.25;;
67715;SDS011;54508;43.238;25.306;2024-02-23T10:28:19;6.77;;;3.10;;
67715;SDS011;54508;43.238;25.306;2024-02-23T10:30:47;7.50;;;2.72;;
67715;SDS011;54508;43.238;25.306;2024-02-23T10:33:13;4.03;;;2.87;;
67715;SDS011;54508;43.238;25.306;2024-02-23T10:35:39;9.02;;;2.90;;
67715;SDS011;54508;43.238;25.306;2024-02-23T10:38:05;6.95;;;2.88;;
67715;SDS011;54508;43.238;25.306;2024-02-23T10:40:34;3.80;;;2.72;;
67715;SDS011;54508;43.238;25.306;2024-02-23T10:43:06;3.28;;;2.45;;
67715;SDS011;54508;43.238;25.306;2024-02-23T10:45:38;5.75;;;2.55;;
67715;SDS011;54508;43.238;25.306;2024-02-23T10:48:05;6.45;;;2.85;;
67715;SDS011;54508;43.238;25.306;2024-02-23T10:50:32;6.28;;;2.70;;
67715;SDS011;54508;43.238;25.306;2024-02-23T10:52:59;5.07;;;2.60;;
67715;SDS011;54508;43.238;25.306;2024-02-23T10:55:25;3.67;;;2.50;;
67715;SDS011;54508;43.238;25.306;2024-02-23T10:57:52;3.92;;;2.40;;
67715;SDS011;54508;43.238;25.306;2024-02-23T11:00:18;3.60;;;2.33;;
67715;SDS011;54508;43.238;25.306;2024-02-23T11:02:48;4.82;;;2.67;;
67715;SDS011;54508;43.238;25.306;2024-02-23T11:05:16;5.03;;;2.55;;
67715;SDS011;54508;43.238;25.306;2024-02-23T11:07:41;3.30;;;1.97;;
67715;SDS011;54508;43.238;25.306;2024-02-23T11:10:07;4.68;;;2.40;;
67715;SDS011;54508;43.238;25.306;2024-02-23T11:12:34;2.72;;;2.20;;
67715;SDS011;54508;43.238;25.306;2024-02-23T11:15:00;5.28;;;2.20;;
67715;SDS011;54508;43.238;25.306;2024-02-23T11:17:27;5.78;;;2.10;;
67715;SDS011;54508;43.238;25.306;2024-02-23T11:19:54;3.92;;;2.10;;
67715;SDS011;54508;43.238;25.306;2024-02-23T11:22:24;9.40;;;2.10;;
67715;SDS011;54508;43.238;25.306;2024-02-23T11:24:51;3.70;;;2.22;;
67715;SDS011;54508;43.238;25.306;2024-02-23T11:27:16;8.90;;;2.53;;
67715;SDS011;54508;43.238;25.306;2024-02-23T11:29:47;6.40;;;2.30;;
67715;SDS011;54508;43.238;25.306;2024-02-23T11:32:16;6.00;;;2.22;;
67715;SDS011;54508;43.238;25.306;2024-02-23T11:34:53;3.40;;;2.15;;
67715;SDS011;54508;43.238;25.306;2024-02-23T11:37:20;4.05;;;2.17;;
67715;SDS011;54508;43.238;25.306;2024-02-23T11:39:45;9.27;;;2.47;;
67715;SDS011;54508;43.238;25.306;2024-02-23T11:42:11;5.63;;;2.15;;
67715;SDS011;54508;43.238;25.306;2024-02-23T11:44:37;4.72;;;2.05;;
67715;SDS011;54508;43.238;25.306;2024-02-23T11:47:03;4.13;;;1.87;;
67715;SDS011;54508;43.238;25.306;2024-02-23T11:49:28;6.07;;;1.93;;
67715;SDS011;54508;43.238;25.306;2024-02-23T11:51:54;6.45;;;2.42;;
67715;SDS011;54508;43.238;25.306;2024-02-23T11:54:20;5.00;;;1.97;;
67715;SDS011;54508;43.238;25.306;2024-02-23T11:56:47;10.25;;;2.47;;
67715;SDS011;54508;43.238;25.306;2024-02-23T11:59:14;5.47;;;1.80;;
67715;SDS011;54508;43.238;25.306;2024-02-23T12:01:42;3.97;;;1.75;;
67715;SDS011;54508;43.238;25.306;2024-02-23T12:04:08;5.43;;;1.98;;
67715;SDS011;54508;43.238;25.306;2024-02-23T12:06:33;8.50;;;2.17;;
67715;SDS011;54508;43.238;25.306;2024-02-23T12:08:59;6.13;;;2.20;;
67715;SDS011;54508;43.238;25.306;2024-02-23T12:11:25;6.28;;;2.28;;
67715;SDS011;54508;43.238;25.306;2024-02-23T12:13:51;2.40;;;1.50;;
67715;SDS011;54508;43.238;25.306;2024-02-23T12:16:16;5.65;;;2.38;;
67715;SDS011;54508;43.238;25.306;2024-02-23T12:18:43;5.78;;;2.38;;
67715;SDS011;54508;43.238;25.306;2024-02-23T12:21:08;3.30;;;1.90;;
67715;SDS011;54508;43.238;25.306;2024-02-23T12:23:44;5.13;;;2.20;;
67715;SDS011;54508;43.238;25.306;2024-02-23T12:26:10;6.85;;;1.98;;
67715;SDS011;54508;43.238;25.306;2024-02-23T12:28:38;4.78;;;2.47;;
67715;SDS011;54508;43.238;25.306;2024-02-23T12:31:04;3.53;;;1.87;;
67715;SDS011;54508;43.238;25.306;2024-02-23T12:33:31;4.30;;;2.20;;
67715;SDS011;54508;43.238;25.306;2024-02-23T12:36:01;3.55;;;2.35;;
67715;SDS011;54508;43.238;25.306;2024-02-23T12:38:27;4.88;;;2.03;;
67715;SDS011;54508;43.238;25.306;2024-02-23T12:40:53;4.43;;;1.87;;
67715;SDS011;54508;43.238;25.306;2024-02-23T12:43:19;2.90;;;2.38;;
67715;SDS011;54508;43.238;25.306;2024-02-23T12:45:49;9.00;;;2.63;;
67715;SDS011;54508;43.238;25.306;2024-02-23T12:48:16;4.90;;;2.20;;
67715;SDS011;54508;43.238;25.306;2024-02-23T12:50:42;4.60;;;2.20;;
67715;SDS011;54508;43.238;25.306;2024-02-23T12:53:08;9.05;;;2.92;;
67715;SDS011;54508;43.238;25.306;2024-02-23T12:55:34;6.60;;;2.78;;
67715;SDS011;54508;43.238;25.306;2024-02-23T12:58:01;4.88;;;2.50;;
67715;SDS011;54508;43.238;25.306;2024-02-23T13:00:27;6.30;;;2.60;;
67715;SDS011;54508;43.238;25.306;2024-02-23T13:02:53;3.90;;;1.97;;
67715;SDS011;54508;43.238;25.306;2024-02-23T13:05:19;10.10;;;6.55;;
67715;SDS011;54508;43.238;25.306;2024-02-23T13:07:44;10.50;;;6.17;;
67715;SDS011;54508;43.238;25.306;2024-02-23T13:10:11;6.82;;;5.32;;
67715;SDS011;54508;43.238;25.306;2024-02-23T13:12:36;12.80;;;4.97;;
67715;SDS011;54508;43.238;25.306;2024-02-23T13:15:02;9.93;;;4.47;;
67715;SDS011;54508;43.238;25.306;2024-02-23T13:17:27;7.10;;;4.20;;
67715;SDS011;54508;43.238;25.306;2024-02-23T13:19:53;3.92;;;2.83;;
67715;SDS011;54508;43.238;25.306;2024-02-23T13:22:19;2.87;;;2.47;;
67715;SDS011;54508;43.238;25.306;2024-02-23T13:24:44;2.40;;;2.20;;
67715;SDS011;54508;43.238;25.306;2024-02-23T13:27:10;2.85;;;2.42;;
67715;SDS011;54508;43.238;25.306;2024-02-23T13:29:35;3.30;;;2.23;;
67715;SDS011;54508;43.238;25.306;2024-02-23T13:32:00;6.17;;;2.37;;
67715;SDS011;54508;43.238;25.306;2024-02-23T13:34:26;7.53;;;3.30;;
67715;SDS011;54508;43.238;25.306;2024-02-23T13:36:51;7.27;;;2.40;;
67715;SDS011;54508;43.238;25.306;2024-02-23T13:39:17;6.68;;;2.90;;
67715;SDS011;54508;43.238;25.306;2024-02-23T13:41:43;9.18;;;3.15;;
67715;SDS011;54508;43.238;25.306;2024-02-23T13:44:08;8.38;;;3.00;;
67715;SDS011;54508;43.238;25.306;2024-02-23T13:46:35;7.27;;;2.40;;
67715;SDS011;54508;43.238;25.306;2024-02-23T13:49:03;5.30;;;2.45;;
67715;SDS011;54508;43.238;25.306;2024-02-23T13:51:31;9.32;;;2.53;;
67715;SDS011;54508;43.238;25.306;2024-02-23T13:53:57;6.72;;;2.30;;
67715;SDS011;54508;43.238;25.306;2024-02-23T13:56:22;10.50;;;2.27;;
67715;SDS011;54508;43.238;25.306;2024-02-23T13:58:48;5.40;;;2.03;;
67715;SDS011;54508;43.238;25.306;2024-02-23T14:01:14;6.63;;;2.30;;
67715;SDS011;54508;43.238;25.306;2024-02-23T14:03:40;19.98;;;2.88;;
67715;SDS011;54508;43.238;25.306;2024-02-23T14:06:05;15.63;;;2.30;;
67715;SDS011;54508;43.238;25.306;2024-02-23T14:08:30;22.45;;;2.63;;
67715;SDS011;54508;43.238;25.306;2024-02-23T14:10:59;7.65;;;2.08;;
67715;SDS011;54508;43.238;25.306;2024-02-23T14:13:27;12.73;;;2.85;;
67715;SDS011;54508;43.238;25.306;2024-02-23T14:15:52;15.80;;;2.70;;
67715;SDS011;54508;43.238;25.306;2024-02-23T14:18:18;15.20;;;2.83;;
67715;SDS011;54508;43.238;25.306;2024-02-23T14:20:44;12.27;;;2.47;;
67715;SDS011;54508;43.238;25.306;2024-02-23T14:23:09;11.50;;;2.40;;
67715;SDS011;54508;43.238;25.306;2024-02-23T14:25:35;11.77;;;2.47;;